createdAt,value
2019-01-25T00:01:31.705Z,-0.70
2019-01-25T00:04:00.402Z,-0.90
2019-01-25T00:08:57.425Z,-0.80
2019-01-25T00:11:26.189Z,-0.80
2019-01-25T00:13:54.869Z,-0.80
2019-01-25T00:16:23.789Z,-0.80
2019-01-25T00:18:52.447Z,-0.70
2019-01-25T00:21:21.135Z,-0.70
2019-01-25T00:23:49.814Z,-0.70
2019-01-25T00:26:18.878Z,-1.20
2019-01-25T00:31:15.897Z,-0.80
2019-01-25T00:33:44.564Z,-0.80
2019-01-25T00:36:13.273Z,-0.90
2019-01-25T00:38:42.075Z,-1.00
2019-01-25T00:41:10.735Z,-1.00
2019-01-25T00:43:39.428Z,-1.10
2019-01-25T00:46:08.115Z,-1.00
2019-01-25T00:51:05.442Z,-1.00
2019-01-25T00:53:34.107Z,-0.90
2019-01-25T00:56:02.828Z,-0.90
2019-01-25T00:58:31.524Z,-1.00
2019-01-25T01:01:00.190Z,-1.00
2019-01-25T01:03:28.863Z,-1.00
2019-01-25T01:05:57.524Z,-0.90
2019-01-25T01:08:26.183Z,-0.90
2019-01-25T01:13:23.251Z,-1.00
2019-01-25T01:15:51.900Z,-1.00
2019-01-25T01:18:20.563Z,-1.00
2019-01-25T01:20:49.225Z,-1.00
2019-01-25T01:23:17.965Z,-1.00
2019-01-25T01:25:46.711Z,-1.00
2019-01-25T01:28:15.398Z,-1.10
2019-01-25T01:30:44.067Z,-1.00
2019-01-25T01:35:41.030Z,-1.20
2019-01-25T01:38:09.729Z,-1.10
2019-01-25T01:40:38.420Z,-1.00
2019-01-25T01:43:07.149Z,-1.10
2019-01-25T01:45:35.808Z,-1.10
2019-01-25T01:48:04.481Z,-1.10
2019-01-25T01:50:33.119Z,-1.40
2019-01-25T01:55:30.192Z,-1.20
2019-01-25T01:57:58.839Z,-1.20
2019-01-25T02:00:27.684Z,-1.20
2019-01-25T02:02:56.397Z,-1.20
2019-01-25T02:05:25.065Z,-1.10
2019-01-25T02:07:53.741Z,-1.20
2019-01-25T02:10:29.648Z,-1.20
2019-01-25T02:12:57.569Z,-1.20
2019-01-25T02:17:54.646Z,-1.30
2019-01-25T02:20:28.446Z,-1.40
2019-01-25T02:22:57.249Z,-1.60
2019-01-25T02:25:25.942Z,-1.50
2019-01-25T02:27:54.639Z,-1.40
2019-01-25T02:30:24.175Z,-1.30
2019-01-25T02:32:52.863Z,-1.40
2019-01-25T02:35:21.559Z,-1.40
2019-01-25T02:40:20.278Z,-1.30
2019-01-25T02:42:48.926Z,-1.30
2019-01-25T02:45:17.600Z,-1.20
2019-01-25T02:47:46.278Z,-1.20
2019-01-25T02:50:16.587Z,-1.20
2019-01-25T02:52:45.585Z,-1.10
2019-01-25T02:55:14.324Z,-1.20
2019-01-25T02:57:42.977Z,-1.20
2019-01-25T03:02:41.697Z,-1.10
2019-01-25T03:05:10.349Z,-1.10
2019-01-25T03:07:39.008Z,-1.00
2019-01-25T03:10:09.393Z,-1.10
2019-01-25T03:12:38.051Z,-1.00
2019-01-25T03:15:08.840Z,-1.00
2019-01-25T03:17:37.497Z,-1.10
2019-01-25T03:20:06.396Z,0.10
2019-01-25T03:25:03.450Z,-0.60
2019-01-25T03:27:32.123Z,-1.10
2019-01-25T03:30:00.774Z,-1.20
2019-01-25T03:32:29.453Z,-1.30
2019-01-25T03:34:58.384Z,-1.20
2019-01-25T03:37:27.028Z,-1.20
2019-01-25T03:39:55.765Z,-1.20
2019-01-25T03:42:24.406Z,-1.50
2019-01-25T03:47:21.339Z,-1.50
2019-01-25T03:49:50.473Z,-1.20
2019-01-25T03:52:19.137Z,-1.30
2019-01-25T03:54:47.853Z,-1.20
2019-01-25T03:57:16.603Z,-1.20
2019-01-25T03:59:45.265Z,-1.10
2019-01-25T04:02:13.937Z,-1.20
2019-01-25T04:07:11.114Z,-1.50
2019-01-25T04:09:39.785Z,-1.30
2019-01-25T04:12:08.459Z,-1.40
2019-01-25T04:14:37.140Z,-1.40
2019-01-25T04:17:05.809Z,-1.30
2019-01-25T04:19:34.813Z,-1.30
2019-01-25T04:22:03.473Z,-1.20
2019-01-25T04:24:32.220Z,-1.70
2019-01-25T04:29:29.368Z,-1.30
2019-01-25T04:31:58.024Z,-1.30
2019-01-25T04:34:26.737Z,-1.30
2019-01-25T04:36:55.586Z,-1.20
2019-01-25T04:39:24.317Z,-1.20
2019-01-25T04:41:53.166Z,-1.20
2019-01-25T04:44:21.808Z,-1.30
2019-01-25T04:46:50.477Z,-1.30
2019-01-25T04:51:47.839Z,-1.40
2019-01-25T04:54:16.559Z,-1.40
2019-01-25T04:56:45.210Z,-1.50
2019-01-25T04:59:13.870Z,-1.40
2019-01-25T05:01:42.547Z,-1.40
2019-01-25T05:04:11.289Z,-1.30
2019-01-25T05:09:09.634Z,-1.40
2019-01-25T05:11:38.305Z,-1.40
2019-01-25T05:14:06.963Z,-1.40
2019-01-25T05:16:35.624Z,-1.40
2019-01-25T05:19:04.325Z,-1.30
2019-01-25T05:21:32.985Z,-1.40
2019-01-25T05:24:09.401Z,-1.30
2019-01-25T05:26:38.057Z,-1.30
2019-01-25T05:31:35.072Z,-1.40
2019-01-25T05:34:04.206Z,-0.80
2019-01-25T05:36:32.867Z,-1.30
2019-01-25T05:39:01.545Z,-1.30
2019-01-25T05:41:30.201Z,-1.40
2019-01-25T05:43:58.976Z,-1.40
2019-01-25T05:46:27.640Z,-1.40
2019-01-25T05:48:56.610Z,-1.40
2019-01-25T05:53:53.844Z,-1.40
2019-01-25T05:56:22.908Z,-1.30
2019-01-25T05:58:51.568Z,-1.30
2019-01-25T06:01:20.242Z,-1.40
2019-01-25T06:03:48.902Z,-1.40
2019-01-25T06:06:17.548Z,-1.40
2019-01-25T06:11:14.622Z,-1.40
2019-01-25T06:13:44.355Z,-1.30
2019-01-25T06:16:14.646Z,-1.30
2019-01-25T06:18:43.297Z,-1.30
2019-01-25T06:21:11.967Z,-1.40
2019-01-25T06:23:40.599Z,-1.40
2019-01-25T06:26:10.380Z,-1.30
2019-01-25T06:28:39.036Z,-1.40
2019-01-25T06:33:36.157Z,-1.40
2019-01-25T06:36:05.907Z,-1.40
2019-01-25T06:38:34.574Z,-1.50
2019-01-25T06:41:03.258Z,-1.40
2019-01-25T06:43:31.925Z,-1.50
2019-01-25T06:46:00.576Z,-1.40
2019-01-25T06:48:29.233Z,-1.40
2019-01-25T06:50:57.885Z,-1.40
2019-01-25T06:55:54.957Z,-1.40
2019-01-25T06:58:45.927Z,-1.40
2019-01-25T07:01:38.527Z,-1.60
2019-01-25T07:04:07.279Z,-1.50
2019-01-25T07:06:35.989Z,-1.50
2019-01-25T07:09:08.956Z,-1.50
2019-01-25T07:11:42.032Z,-1.50
2019-01-25T07:14:08.086Z,-1.40
2019-01-25T07:16:36.814Z,-1.50
2019-01-25T07:21:34.200Z,-1.50
2019-01-25T07:24:02.965Z,-1.50
2019-01-25T07:26:31.869Z,-1.50
2019-01-25T07:29:00.540Z,-1.50
2019-01-25T07:31:29.193Z,-1.50
2019-01-25T07:33:58.102Z,-1.50
2019-01-25T07:36:26.800Z,-1.60
2019-01-25T07:38:55.518Z,-1.50
2019-01-25T07:43:52.634Z,-1.50
2019-01-25T07:46:21.330Z,-1.50
2019-01-25T07:48:50.096Z,-1.50
2019-01-25T07:51:18.769Z,-1.50
2019-01-25T07:53:48.157Z,-1.50
2019-01-25T07:56:17.333Z,-1.50
2019-01-25T07:58:46.654Z,-1.50
2019-01-25T08:01:15.373Z,-1.40
2019-01-25T08:06:12.394Z,-1.40
2019-01-25T08:08:41.050Z,-1.40
2019-01-25T08:11:09.803Z,-1.30
2019-01-25T08:13:38.545Z,-1.30
2019-01-25T08:16:07.264Z,-1.30
2019-01-25T08:18:36.027Z,-1.30
2019-01-25T08:21:05.012Z,-1.30
2019-01-25T08:23:33.760Z,-1.30
2019-01-25T08:28:30.837Z,-1.30
2019-01-25T08:30:59.839Z,-1.30
2019-01-25T08:33:28.515Z,-1.30
2019-01-25T08:35:57.357Z,-1.20
2019-01-25T08:38:26.147Z,-1.20
2019-01-25T08:40:55.199Z,-1.00
2019-01-25T08:43:24.186Z,-1.00
2019-01-25T08:48:21.421Z,-1.00
2019-01-25T08:50:50.718Z,-1.00
2019-01-25T08:53:19.505Z,-1.00
2019-01-25T08:55:48.204Z,-1.00
2019-01-25T08:58:16.929Z,-1.00
2019-01-25T09:00:45.647Z,-0.90
2019-01-25T09:03:14.349Z,-0.80
2019-01-25T09:05:43.016Z,-0.90
2019-01-25T09:10:40.106Z,-0.80
2019-01-25T09:13:08.812Z,-0.70
2019-01-25T09:15:37.461Z,-0.60
2019-01-25T09:18:06.114Z,-0.60
2019-01-25T09:20:34.782Z,-0.50
2019-01-25T09:23:03.424Z,-0.60
2019-01-25T09:25:32.117Z,-0.70
2019-01-25T09:28:00.775Z,-0.60
2019-01-25T09:32:57.746Z,-0.90
2019-01-25T09:35:26.416Z,-0.60
2019-01-25T09:37:55.069Z,-0.60
2019-01-25T09:40:24.229Z,-0.50
2019-01-25T09:42:52.993Z,-0.40
2019-01-25T09:45:21.845Z,-0.40
2019-01-25T09:47:50.884Z,-0.30
2019-01-25T09:52:47.884Z,0.10
2019-01-25T09:55:20.890Z,0.10
2019-01-25T09:57:50.457Z,0.10
2019-01-25T10:00:22.233Z,0.10
2019-01-25T10:02:50.897Z,0.10
2019-01-25T10:05:19.546Z,0.10
2019-01-25T10:07:48.197Z,0.00
2019-01-25T10:10:16.845Z,0.10
2019-01-25T10:15:16.283Z,0.00
2019-01-25T10:17:44.943Z,0.00
2019-01-25T10:20:13.640Z,0.10
2019-01-25T10:22:42.293Z,0.20
2019-01-25T10:25:10.976Z,0.10
2019-01-25T10:27:39.986Z,-0.20
2019-01-25T10:30:11.383Z,-0.10
2019-01-25T10:32:40.034Z,0.10
2019-01-25T10:37:38.254Z,0.20
2019-01-25T10:40:09.696Z,0.30
2019-01-25T10:42:44.306Z,0.30
2019-01-25T10:45:13.359Z,0.20
2019-01-25T10:47:42.031Z,0.00
2019-01-25T10:50:10.668Z,0.00
2019-01-25T10:52:39.313Z,0.10
2019-01-25T10:55:07.989Z,0.30
2019-01-25T10:57:36.645Z,0.40
2019-01-25T11:02:34.788Z,0.40
2019-01-25T11:05:03.469Z,0.50
2019-01-25T11:07:32.189Z,0.60
2019-01-25T11:10:01.240Z,0.60
2019-01-25T11:12:29.884Z,0.70
2019-01-25T11:14:58.527Z,0.80
2019-01-25T11:17:27.213Z,0.80
2019-01-25T11:22:24.222Z,0.70
2019-01-25T11:24:52.873Z,0.70
2019-01-25T11:27:21.581Z,0.80
2019-01-25T11:29:50.247Z,0.90
2019-01-25T11:32:18.884Z,0.90
2019-01-25T11:34:47.600Z,1.00
2019-01-25T11:37:16.252Z,1.10
2019-01-25T11:39:49.213Z,1.60
2019-01-25T11:44:44.093Z,0.90
2019-01-25T11:47:12.733Z,1.00
2019-01-25T11:49:41.383Z,1.10
2019-01-25T11:52:10.052Z,1.10
2019-01-25T11:54:38.710Z,1.10
2019-01-25T11:57:07.430Z,1.10
2019-01-25T11:59:36.089Z,1.10
2019-01-25T12:02:04.822Z,1.30
2019-01-25T12:07:01.895Z,1.20
2019-01-25T12:09:30.553Z,1.30
2019-01-25T12:11:59.202Z,1.50
2019-01-25T12:14:27.874Z,1.40
2019-01-25T12:16:56.519Z,1.50
2019-01-25T12:19:25.181Z,1.60
2019-01-25T12:21:53.856Z,1.50
2019-01-25T12:26:50.801Z,1.60
2019-01-25T12:29:19.485Z,1.60
2019-01-25T12:31:48.215Z,1.60
2019-01-25T12:34:16.880Z,1.70
2019-01-25T12:36:45.532Z,1.90
2019-01-25T12:39:14.184Z,1.90
2019-01-25T12:41:42.870Z,2.00
2019-01-25T12:44:11.622Z,1.70
2019-01-25T12:49:08.758Z,1.80
2019-01-25T12:52:08.415Z,1.90
2019-01-25T12:54:37.176Z,1.90
2019-01-25T12:57:06.003Z,2.10
2019-01-25T12:59:35.361Z,2.10
2019-01-25T13:02:04.161Z,2.20
2019-01-25T13:04:32.830Z,2.30
2019-01-25T13:07:01.558Z,2.20
2019-01-25T13:09:30.225Z,1.90
2019-01-25T13:14:27.311Z,2.00
2019-01-25T13:16:55.992Z,2.10
2019-01-25T13:19:24.652Z,2.10
2019-01-25T13:21:53.365Z,2.20
2019-01-25T13:24:22.008Z,2.30
2019-01-25T13:26:50.771Z,2.30
2019-01-25T13:29:26.085Z,2.10
2019-01-25T13:31:50.169Z,2.30
2019-01-25T13:36:47.452Z,2.00
2019-01-25T13:39:16.178Z,1.70
2019-01-25T13:41:44.831Z,1.60
2019-01-25T13:44:13.562Z,1.60
2019-01-25T13:46:42.384Z,1.80
2019-01-25T13:49:11.056Z,1.80
2019-01-25T13:51:39.720Z,1.70
2019-01-25T13:54:08.368Z,1.90
2019-01-25T13:59:05.373Z,2.20
2019-01-25T14:01:34.886Z,2.30
2019-01-25T14:04:03.677Z,1.90
2019-01-25T14:06:32.342Z,1.90
2019-01-25T14:09:01.052Z,1.90
2019-01-25T14:11:29.709Z,1.90
2019-01-25T14:13:58.406Z,1.90
2019-01-25T14:16:27.090Z,1.80
2019-01-25T14:21:24.242Z,1.80
2019-01-25T14:23:52.906Z,1.70
2019-01-25T14:26:21.555Z,1.70
2019-01-25T14:28:50.206Z,1.50
2019-01-25T14:31:18.856Z,1.60
2019-01-25T14:33:47.804Z,1.20
2019-01-25T14:36:16.458Z,1.40
2019-01-25T14:41:14.582Z,1.30
2019-01-25T14:43:43.252Z,1.20
2019-01-25T14:46:12.239Z,1.10
2019-01-25T14:48:40.972Z,1.20
2019-01-25T14:51:09.636Z,1.30
2019-01-25T14:53:38.316Z,1.40
2019-01-25T14:56:06.978Z,1.30
2019-01-25T14:58:35.636Z,1.30
2019-01-25T15:03:32.582Z,1.30
2019-01-25T15:06:01.342Z,1.30
2019-01-25T15:08:30.025Z,1.20
2019-01-25T15:10:58.755Z,1.20
2019-01-25T15:13:27.407Z,1.40
2019-01-25T15:15:56.081Z,1.80
2019-01-25T15:18:24.736Z,1.70
2019-01-25T15:20:53.395Z,1.60
2019-01-25T15:25:50.358Z,1.50
2019-01-25T15:28:19.197Z,1.40
2019-01-25T15:30:47.869Z,1.30
2019-01-25T15:33:16.624Z,1.30
2019-01-25T15:35:45.385Z,1.30
2019-01-25T15:38:14.059Z,1.20
2019-01-25T15:40:42.734Z,2.70
2019-01-25T15:48:08.452Z,1.00
2019-01-25T15:50:37.107Z,0.90
2019-01-25T15:53:05.781Z,0.90
2019-01-25T15:55:34.542Z,0.90
2019-01-25T15:58:03.212Z,0.80
2019-01-25T16:00:31.869Z,0.80
2019-01-25T16:03:00.512Z,0.70
2019-01-25T16:07:57.532Z,0.50
2019-01-25T16:10:26.317Z,0.70
2019-01-25T16:12:54.965Z,0.70
2019-01-25T16:15:25.609Z,0.60
2019-01-25T16:17:54.446Z,0.60
2019-01-25T16:20:23.129Z,0.40
2019-01-25T16:22:52.176Z,0.30
2019-01-25T16:25:23.541Z,0.40
2019-01-25T16:30:23.002Z,0.30
2019-01-25T16:32:51.689Z,0.20
2019-01-25T16:35:20.353Z,0.00
2019-01-25T16:37:49.099Z,-0.10
2019-01-25T16:40:18.708Z,-0.10
2019-01-25T16:42:47.374Z,-0.50
2019-01-25T16:45:21.534Z,-0.50
2019-01-25T16:47:50.184Z,-0.60
2019-01-25T16:52:48.941Z,-0.60
2019-01-25T16:55:19.277Z,-0.60
2019-01-25T16:57:47.994Z,-0.70
2019-01-25T17:00:28.891Z,-0.90
2019-01-25T17:02:57.974Z,-1.10
2019-01-25T17:05:26.634Z,-1.20
2019-01-25T17:07:55.328Z,-1.30
2019-01-25T17:10:23.988Z,-1.40
2019-01-25T17:12:52.670Z,-1.50
2019-01-25T17:17:50.125Z,-1.60
2019-01-25T17:20:21.427Z,-1.60
2019-01-25T17:22:50.137Z,-1.60
2019-01-25T17:25:18.885Z,-2.00
2019-01-25T17:27:47.562Z,-2.20
2019-01-25T17:30:27.335Z,-2.30
2019-01-25T17:32:57.270Z,-2.30
2019-01-25T17:35:25.924Z,-2.30
2019-01-25T17:40:25.389Z,-2.40
2019-01-25T17:42:54.133Z,-2.30
2019-01-25T17:45:22.825Z,-2.40
2019-01-25T17:47:51.605Z,-2.50
2019-01-25T17:50:20.356Z,-2.50
2019-01-25T17:52:49.065Z,-2.40
2019-01-25T17:55:17.806Z,-2.40
2019-01-25T17:57:46.801Z,-2.50
2019-01-25T18:02:49.992Z,-2.60
2019-01-25T18:05:18.661Z,-2.70
2019-01-25T18:07:47.399Z,-2.80
2019-01-25T18:10:16.374Z,-2.80
2019-01-25T18:12:45.128Z,-2.90
2019-01-25T18:15:14.228Z,-3.00
2019-01-25T18:17:42.897Z,-3.30
2019-01-25T18:22:40.998Z,-3.40
2019-01-25T18:25:10.996Z,-3.40
2019-01-25T18:27:42.026Z,-3.50
2019-01-25T18:30:17.255Z,-3.60
2019-01-25T18:32:45.937Z,-3.70
2019-01-25T18:35:14.600Z,-3.70
2019-01-25T18:37:43.278Z,-3.90
2019-01-25T18:42:41.920Z,-4.10
2019-01-25T18:45:10.634Z,-4.10
2019-01-25T18:47:39.541Z,-4.10
2019-01-25T18:50:10.346Z,-4.10
2019-01-25T18:52:39.230Z,-4.00
2019-01-25T18:55:12.190Z,-4.10
2019-01-25T18:57:40.962Z,-4.10
2019-01-25T19:00:12.842Z,-4.30
2019-01-25T19:05:10.111Z,-4.50
2019-01-25T19:07:38.846Z,-4.50
2019-01-25T19:10:10.919Z,-4.60
2019-01-25T19:12:39.740Z,-4.60
2019-01-25T19:15:10.854Z,-4.50
2019-01-25T19:17:39.596Z,-4.60
2019-01-25T19:20:09.936Z,-4.60
2019-01-25T19:22:38.844Z,-4.60
2019-01-25T19:27:37.836Z,-4.70
2019-01-25T19:30:13.500Z,-4.70
2019-01-25T19:32:45.245Z,-4.70
2019-01-25T19:35:13.911Z,-4.80
2019-01-25T19:37:42.763Z,-4.80
2019-01-25T19:40:13.070Z,-4.90
2019-01-25T19:42:41.861Z,-5.10
2019-01-25T19:45:12.025Z,-5.10
2019-01-25T19:47:40.972Z,-5.20
2019-01-25T19:52:38.845Z,-5.10
2019-01-25T19:55:10.535Z,-5.00
2019-01-25T19:57:39.192Z,-5.10
2019-01-25T20:00:15.116Z,-5.10
2019-01-25T20:02:43.818Z,-5.20
2019-01-25T20:05:13.474Z,-5.30
2019-01-25T20:07:42.197Z,-5.30
2019-01-25T20:10:11.161Z,-5.50
2019-01-25T20:15:10.110Z,-5.60
2019-01-25T20:17:38.772Z,-5.50
2019-01-25T20:20:11.729Z,-5.60
2019-01-25T20:22:40.404Z,-5.50
2019-01-25T20:25:09.261Z,-5.50
2019-01-25T20:27:37.946Z,-5.50
2019-01-25T20:30:10.467Z,-5.50
2019-01-25T20:32:39.128Z,-5.80
2019-01-25T20:37:37.480Z,-5.90
2019-01-25T20:40:09.175Z,-5.90
2019-01-25T20:42:37.821Z,-5.80
2019-01-25T20:45:08.499Z,-5.80
2019-01-25T20:47:37.238Z,-5.80
2019-01-25T20:50:08.200Z,-5.80
2019-01-25T20:52:36.930Z,-5.80
2019-01-25T20:55:06.557Z,-5.80
2019-01-25T20:57:35.281Z,-6.00
2019-01-25T21:02:35.156Z,-5.70
2019-01-25T21:05:04.064Z,-5.70
2019-01-25T21:07:32.754Z,-5.70
2019-01-25T21:10:01.462Z,-5.60
2019-01-25T21:12:30.420Z,-5.50
2019-01-25T21:14:59.101Z,-5.50
2019-01-25T21:17:27.951Z,-5.40
2019-01-25T21:22:24.926Z,-5.30
2019-01-25T21:24:53.583Z,-5.30
2019-01-25T21:27:22.245Z,-5.30
2019-01-25T21:29:51.005Z,-5.10
2019-01-25T21:32:19.675Z,-5.00
2019-01-25T21:34:48.606Z,-5.00
2019-01-25T21:37:17.357Z,-5.00
2019-01-25T21:39:47.901Z,-5.10
2019-01-25T21:44:45.174Z,-5.00
2019-01-25T21:47:13.953Z,-4.90
2019-01-25T21:49:42.630Z,-4.90
2019-01-25T21:52:11.289Z,-4.70
2019-01-25T21:54:39.945Z,-4.60
2019-01-25T21:57:08.870Z,-4.50
2019-01-25T21:59:37.585Z,-4.50
2019-01-25T22:04:34.704Z,-4.50
2019-01-25T22:07:03.396Z,-4.40
2019-01-25T22:09:32.076Z,-4.30
2019-01-25T22:12:01.057Z,-4.20
2019-01-25T22:14:30.143Z,-4.30
2019-01-25T22:16:58.844Z,-4.20
2019-01-25T22:19:27.578Z,-4.20
2019-01-25T22:21:56.247Z,-4.20
2019-01-25T22:26:53.218Z,-4.20
2019-01-25T22:29:23.115Z,-4.00
2019-01-25T22:31:51.860Z,-4.00
2019-01-25T22:34:20.600Z,-4.00
2019-01-25T22:36:49.348Z,-4.00
2019-01-25T22:39:18.049Z,-4.00
2019-01-25T22:41:47.087Z,-3.90
2019-01-25T22:46:44.048Z,-3.90
2019-01-25T22:49:12.698Z,-3.80
2019-01-25T22:51:41.358Z,-3.70
2019-01-25T22:54:10.097Z,-3.80
2019-01-25T22:56:38.784Z,-3.70
2019-01-25T22:59:07.453Z,-3.80
2019-01-25T23:01:36.280Z,-3.80
2019-01-25T23:07:17.269Z,-4.00
2019-01-25T23:12:18.149Z,-4.00
2019-01-25T23:14:46.828Z,-4.20
2019-01-25T23:17:15.766Z,-4.20
2019-01-25T23:19:44.560Z,-4.20
2019-01-25T23:22:13.644Z,-4.20
2019-01-25T23:24:42.782Z,-4.20
2019-01-25T23:27:11.449Z,-4.10
2019-01-25T23:32:08.410Z,-4.30
2019-01-25T23:34:37.213Z,-4.00
2019-01-25T23:37:05.946Z,-4.00
2019-01-25T23:39:35.664Z,-3.90
2019-01-25T23:42:04.340Z,-4.00
2019-01-25T23:44:33.040Z,-4.10
2019-01-25T23:47:01.731Z,-4.00
2019-01-25T23:51:58.663Z,-3.90
2019-01-25T23:54:27.378Z,-3.90
2019-01-25T23:56:56.082Z,-3.70
2019-01-25T23:59:24.862Z,-3.70
